Time;durP1;ratioP1;P1;durP2;ratioP2;P2;SDS_P1;SDS_P2;PMS_P1;PMS_P2;Temp;Humidity;BMP_temperature;BMP_pressure;BME280_temperature;BME280_humidity;BME280_pressure;Samples;Min_cycle;Max_cycle;Signal;HPM_P1;HPM_P2
2021/12/30 00:02:26;;;;;;;22.35;6.57;;;;;;;8.73;87.42;99581.19;5031692;28;20052;-54
2021/12/30 00:04:58;;;;;;;20.48;5.93;;;;;;;8.73;87.18;99579.50;5033405;28;20034;-55
2021/12/30 00:07:28;;;;;;;21.73;6.60;;;;;;;8.74;87.18;99583.81;5016044;28;20044;-54
2021/12/30 00:09:53;;;;;;;18.75;6.40;;;;;;;8.76;87.38;99595.06;5032393;28;20030;-54
2021/12/30 00:12:25;;;;;;;25.90;6.78;;;;;;;8.76;87.30;99600.22;5033426;28;20046;-55
2021/12/30 00:14:50;;;;;;;13.23;5.25;;;;;;;8.77;87.32;99607.13;5015585;28;20040;-54
2021/12/30 00:17:16;;;;;;;23.85;5.35;;;;;;;8.77;87.32;99601.97;5033388;28;20045;-54
2021/12/30 00:19:44;;;;;;;16.27;5.93;;;;;;;8.77;87.28;99598.50;5033352;28;20112;-54
2021/12/30 00:22:15;;;;;;;25.52;6.47;;;;;;;8.79;87.15;99607.16;5033642;28;20469;-54
2021/12/30 00:24:44;;;;;;;24.92;5.50;;;;;;;8.80;87.32;99603.72;5032124;28;20033;-54
2021/12/30 00:27:15;;;;;;;17.40;5.57;;;;;;;8.79;87.24;99609.75;5032458;28;20045;-54
2021/12/30 00:29:41;;;;;;;21.73;4.97;;;;;;;8.79;87.24;99605.44;5032911;28;20489;-54
2021/12/30 00:32:08;;;;;;;17.92;4.35;;;;;;;8.80;87.34;99608.91;5032596;28;20048;-55
2021/12/30 00:34:34;;;;;;;21.80;6.05;;;;;;;8.79;87.32;99602.88;5015452;28;20060;-54
2021/12/30 00:36:59;;;;;;;23.40;6.05;;;;;;;8.81;87.31;99603.75;5033368;28;20480;-54
2021/12/30 00:39:28;;;;;;;20.90;5.70;;;;;;;8.82;87.41;99605.47;5033262;28;20041;-54
2021/12/30 00:41:54;;;;;;;20.50;5.80;;;;;;;8.84;87.35;99603.78;5031784;28;20424;-54
2021/12/30 00:44:22;;;;;;;21.10;6.22;;;;;;;8.85;87.49;99604.69;5033085;28;20083;-54
2021/12/30 00:46:53;;;;;;;21.98;6.78;;;;;;;8.87;87.19;99605.56;5031425;28;20041;-54
2021/12/30 00:49:21;;;;;;;20.73;5.70;;;;;;;8.89;87.23;99606.44;5031857;28;20117;-54
2021/12/30 00:51:48;;;;;;;16.98;5.43;;;;;;;8.91;87.33;99602.16;5034225;28;20048;-54
2021/12/30 00:54:16;;;;;;;21.67;6.75;;;;;;;8.93;87.51;99594.47;5035450;28;20037;-55
2021/12/30 00:56:50;;;;;;;15.85;5.97;;;;;;;8.92;87.37;99596.16;5035444;28;20118;-54
2021/12/30 00:59:16;;;;;;;22.55;7.28;;;;;;;8.94;87.37;99607.41;5036203;28;20623;-54
2021/12/30 01:01:44;;;;;;;17.52;7.28;;;;;;;8.94;87.23;99607.41;5035436;28;20140;-54
2021/12/30 01:04:20;;;;;;;21.30;8.45;;;;;;;8.94;87.32;99601.38;5036985;28;20045;-54
2021/12/30 01:06:46;;;;;;;19.50;8.05;;;;;;;8.96;87.39;99612.56;5035351;28;20037;-54
2021/12/30 01:09:14;;;;;;;21.35;8.00;;;;;;;8.95;87.24;99610.88;5036270;28;20401;-54
2021/12/30 01:11:40;;;;;;;20.58;8.27;;;;;;;8.96;87.42;99610.88;5036245;28;20041;-55
2021/12/30 01:14:19;;;;;;;25.05;8.48;;;;;;;8.95;87.49;99608.28;5035440;28;20091;-54
2021/12/30 01:16:52;;;;;;;21.77;7.75;;;;;;;8.96;87.37;99604.81;5035713;28;20509;-54
2021/12/30 01:21:49;;;;;;;27.02;8.65;;;;;;;8.98;87.59;99624.69;5034965;28;20472;-55
2021/12/30 01:24:19;;;;;;;18.48;7.68;;;;;;;8.99;87.12;99623.84;5034717;28;20120;-54
2021/12/30 01:26:48;;;;;;;24.00;8.40;;;;;;;9.02;87.37;99635.09;5035518;28;20041;-54
2021/12/30 01:29:19;;;;;;;24.05;8.38;;;;;;;9.03;87.56;99636.84;5018888;28;20037;-54
2021/12/30 01:31:45;;;;;;;22.73;7.70;;;;;;;9.03;87.35;99637.69;5036207;28;20045;-54
2021/12/30 01:34:16;;;;;;;19.40;7.07;;;;;;;9.03;87.66;99639.41;5036081;28;20394;-54
2021/12/30 01:36:41;;;;;;;22.15;7.88;;;;;;;9.03;87.51;99642.84;5036112;28;20073;-54
2021/12/30 01:39:10;;;;;;;15.70;7.07;;;;;;;9.04;87.50;99638.53;5035009;28;20088;-55
2021/12/30 01:41:35;;;;;;;19.13;8.32;;;;;;;9.04;87.58;99639.44;5034562;28;20045;-56
2021/12/30 01:44:04;;;;;;;18.25;7.32;;;;;;;9.05;87.37;99643.75;5035633;28;20551;-56
2021/12/30 01:46:40;;;;;;;13.70;6.43;;;;;;;9.04;87.49;99644.59;5018065;28;20102;-56
2021/12/30 01:49:09;;;;;;;16.67;6.68;;;;;;;9.05;87.31;99643.75;5034575;28;20029;-56
2021/12/30 01:51:38;;;;;;;20.20;7.03;;;;;;;9.08;87.64;99646.41;5018699;28;20052;-56
2021/12/30 01:54:04;;;;;;;16.05;7.22;;;;;;;9.10;87.29;99641.25;5034530;28;20037;-55
2021/12/30 01:56:30;;;;;;;15.55;6.57;;;;;;;9.10;87.28;99644.72;5035861;28;20048;-56
2021/12/30 01:58:56;;;;;;;15.68;6.57;;;;;;;9.12;87.28;99645.56;5034767;28;20060;-55
2021/12/30 02:01:25;;;;;;;15.35;5.70;;;;;;;9.12;87.45;99640.41;5035178;28;20481;-55
2021/12/30 02:03:56;;;;;;;15.27;6.07;;;;;;;9.13;87.25;99639.56;5017125;28;20045;-56
2021/12/30 02:06:22;;;;;;;15.70;7.05;;;;;;;9.14;87.48;99640.44;5018541;28;20041;-55
2021/12/30 02:08:51;;;;;;;15.10;6.55;;;;;;;9.16;87.36;99645.63;5035270;28;20125;-55
2021/12/30 02:11:20;;;;;;;14.98;6.05;;;;;;;9.16;87.47;99637.88;5035294;28;20061;-55
2021/12/30 02:13:51;;;;;;;14.43;7.78;;;;;;;9.18;87.63;99636.19;5017625;28;20092;-55
2021/12/30 02:16:21;;;;;;;9.25;5.57;;;;;;;9.17;87.58;99626.69;5035237;28;20069;-55
2021/12/30 02:18:49;;;;;;;12.98;6.03;;;;;;;9.18;87.53;99633.59;5034957;28;20512;-56
2021/12/30 02:21:18;;;;;;;15.43;5.55;;;;;;;9.17;87.55;99635.34;5017769;28;20033;-55
2021/12/30 02:23:46;;;;;;;11.57;5.00;;;;;;;9.19;87.35;99630.16;5017476;28;20029;-55
2021/12/30 02:26:18;;;;;;;12.25;5.10;;;;;;;9.19;87.69;99630.16;5034711;28;20037;-55
2021/12/30 02:28:47;;;;;;;11.05;5.38;;;;;;;9.20;87.65;99627.59;5034167;28;20488;-55
2021/12/30 02:31:14;;;;;;;8.05;5.00;;;;;;;9.21;87.66;99628.47;5033497;28;20080;-55
2021/12/30 02:33:41;;;;;;;11.75;4.70;;;;;;;9.22;87.57;99635.41;5033538;28;20485;-56
2021/12/30 02:36:07;;;;;;;12.25;4.63;;;;;;;9.24;87.63;99638.88;5033794;28;20041;-55
2021/12/30 02:38:33;;;;;;;8.05;4.32;;;;;;;9.24;87.41;99638.88;5017017;28;20492;-55
2021/12/30 02:41:00;;;;;;;9.45;4.90;;;;;;;9.26;87.57;99639.78;5034520;28;20125;-55
2021/12/30 02:43:31;;;;;;;7.57;3.83;;;;;;;9.28;87.56;99638.06;5017010;28;20026;-55
2021/12/30 02:46:04;;;;;;;8.93;4.22;;;;;;;9.28;87.71;99641.53;5017070;28;20060;-56
2021/12/30 02:48:34;;;;;;;5.20;3.75;;;;;;;9.29;87.30;99638.09;5033610;28;20044;-55
2021/12/30 02:51:05;;;;;;;8.00;3.50;;;;;;;9.30;87.58;99641.53;5017035;28;20029;-55
2021/12/30 02:53:32;;;;;;;5.75;3.30;;;;;;;9.31;87.26;99635.50;5017258;28;20042;-55
2021/12/30 02:55:57;;;;;;;6.07;3.45;;;;;;;9.32;87.48;99645.00;5034556;28;20500;-55
2021/12/30 02:58:24;;;;;;;6.25;3.42;;;;;;;9.33;87.58;99646.75;5034464;28;20116;-55
2021/12/30 03:01:02;;;;;;;8.07;3.92;;;;;;;9.33;87.64;99644.16;5017149;28;20033;-56
2021/12/30 03:03:27;;;;;;;8.40;3.88;;;;;;;9.35;87.72;99641.59;5034681;28;20480;-56
2021/12/30 03:05:58;;;;;;;6.53;4.43;;;;;;;9.37;87.63;99652.84;5034364;28;20045;-56
2021/12/30 03:08:31;;;;;;;9.20;4.38;;;;;;;9.37;87.38;99648.53;5034528;28;20041;-55
2021/12/30 03:10:56;;;;;;;5.93;4.82;;;;;;;9.39;87.66;99649.44;5033789;28;20034;-56
2021/12/30 03:13:32;;;;;;;8.90;4.43;;;;;;;9.40;87.70;99640.84;5033045;28;20515;-56
2021/12/30 03:16:00;;;;;;;8.07;5.15;;;;;;;9.41;87.53;99647.75;5032866;28;20044;-55
2021/12/30 03:18:26;;;;;;;6.47;4.50;;;;;;;9.40;87.23;99646.00;5016330;28;20061;-55
2021/12/30 03:20:52;;;;;;;6.38;5.03;;;;;;;9.42;87.90;99651.19;5034163;28;20116;-56
2021/12/30 03:23:17;;;;;;;8.23;4.88;;;;;;;9.43;87.40;99650.34;5032531;28;20116;-56
2021/12/30 03:25:43;;;;;;;4.53;4.13;;;;;;;9.45;87.43;99657.28;5033346;28;20041;-55
2021/12/30 03:28:08;;;;;;;6.00;4.72;;;;;;;9.45;87.45;99664.19;5032609;28;20103;-55
2021/12/30 03:30:37;;;;;;;8.15;4.68;;;;;;;9.47;87.65;99662.50;5033853;28;20041;-56
2021/12/30 03:33:03;;;;;;;6.65;5.15;;;;;;;9.47;87.67;99667.66;5016042;28;20041;-55
2021/12/30 03:35:28;;;;;;;5.30;4.80;;;;;;;9.46;87.54;99665.91;5034138;28;20083;-55
2021/12/30 03:37:55;;;;;;;6.03;4.97;;;;;;;9.48;87.38;99673.69;5033786;28;20083;-56
2021/12/30 03:40:20;;;;;;;6.95;5.50;;;;;;;9.48;87.72;99684.94;5033951;28;20067;-55
2021/12/30 03:42:46;;;;;;;9.23;5.93;;;;;;;9.50;87.45;99685.78;5033906;28;20041;-55
2021/12/30 03:45:15;;;;;;;6.15;4.93;;;;;;;9.50;87.80;99679.75;5034185;28;20103;-55
2021/12/30 03:47:44;;;;;;;7.25;5.40;;;;;;;9.51;87.64;99684.09;5016909;28;20038;-56
2021/12/30 03:50:21;;;;;;;7.85;5.45;;;;;;;9.51;87.78;99684.09;5016121;28;20133;-55
2021/12/30 03:52:50;;;;;;;6.32;5.75;;;;;;;9.50;87.59;99690.09;5015702;28;20051;-56
2021/12/30 03:55:18;;;;;;;5.68;4.82;;;;;;;9.49;87.58;99701.31;5033526;28;20037;-56
2021/12/30 03:57:44;;;;;;;7.47;5.53;;;;;;;9.48;87.54;99707.31;5015890;28;20034;-56
2021/12/30 04:00:11;;;;;;;6.07;5.47;;;;;;;9.45;87.53;99711.59;5032506;28;20044;-55
2021/12/30 04:02:40;;;;;;;5.65;5.10;;;;;;;9.45;87.49;99715.91;5015287;28;20458;-55
2021/12/30 04:05:07;;;;;;;9.02;5.93;;;;;;;9.45;87.18;99714.19;5015856;28;20033;-56
2021/12/30 04:07:33;;;;;;;6.60;5.60;;;;;;;9.45;87.39;99714.19;5033431;28;20041;-56
2021/12/30 04:09:58;;;;;;;6.35;5.50;;;;;;;9.45;87.60;99713.31;5032222;28;20036;-56
2021/12/30 04:12:24;;;;;;;7.60;5.35;;;;;;;9.44;87.69;99715.03;5032975;28;20140;-56
2021/12/30 04:14:52;;;;;;;6.20;5.60;;;;;;;9.43;87.98;99723.63;5033282;28;20034;-55
2021/12/30 04:17:18;;;;;;;6.10;5.50;;;;;;;9.43;87.72;99728.81;5033207;28;20500;-55
2021/12/30 04:19:49;;;;;;;6.53;5.63;;;;;;;9.42;87.73;99727.06;5033175;28;20033;-55
2021/12/30 04:22:18;;;;;;;7.05;5.90;;;;;;;9.42;87.40;99727.06;5033361;28;20040;-55
2021/12/30 04:24:45;;;;;;;7.53;5.85;;;;;;;9.43;87.57;99721.03;5032186;28;20112;-55
2021/12/30 04:27:16;;;;;;;6.25;5.65;;;;;;;9.45;87.48;99728.84;5036103;28;20132;-55
2021/12/30 04:29:42;;;;;;;6.22;5.60;;;;;;;9.45;87.78;99734.88;5035697;28;20041;-56
2021/12/30 04:32:08;;;;;;;6.57;5.80;;;;;;;9.47;87.60;99731.44;5036137;28;20072;-55
2021/12/30 04:34:34;;;;;;;6.18;5.57;;;;;;;9.47;87.66;99741.78;5035933;28;20081;-56
2021/12/30 04:37:02;;;;;;;6.38;5.63;;;;;;;9.48;87.65;99740.94;5036862;28;20516;-56
2021/12/30 04:39:30;;;;;;;6.28;5.30;;;;;;;9.48;87.66;99743.53;5019370;28;20566;-55
2021/12/30 04:42:01;;;;;;;6.20;5.60;;;;;;;9.47;87.77;99746.97;5037161;28;20048;-55
2021/12/30 04:44:29;;;;;;;6.40;5.70;;;;;;;9.48;87.38;99754.78;5019219;28;20029;-55
2021/12/30 04:46:56;;;;;;;5.60;5.05;;;;;;;9.49;87.64;99758.22;5036765;28;20119;-56
2021/12/30 04:49:23;;;;;;;6.28;5.68;;;;;;;9.49;87.64;99758.22;5019879;28;20443;-55
2021/12/30 04:51:49;;;;;;;8.27;5.43;;;;;;;9.49;87.63;99766.88;5019522;28;20033;-55
2021/12/30 04:54:15;;;;;;;6.55;4.78;;;;;;;9.49;87.59;99769.44;5019183;28;20195;-55
2021/12/30 04:56:41;;;;;;;7.55;5.07;;;;;;;9.48;87.70;99774.56;5035766;28;20120;-55
2021/12/30 04:59:06;;;;;;;5.30;4.80;;;;;;;9.47;87.87;99765.97;5036903;28;20037;-55
2021/12/30 05:01:32;;;;;;;4.82;4.38;;;;;;;9.48;87.70;99769.41;5036569;28;20045;-56
2021/12/30 05:03:59;;;;;;;5.45;4.95;;;;;;;9.48;87.84;99772.88;5036714;28;20045;-56
2021/12/30 05:06:28;;;;;;;6.80;4.80;;;;;;;9.47;87.67;99767.66;5036646;28;20084;-55
2021/12/30 05:08:56;;;;;;;5.55;4.78;;;;;;;9.47;87.90;99768.53;5036812;28;20065;-55
2021/12/30 05:11:22;;;;;;;5.38;4.88;;;;;;;9.49;87.83;99782.38;5018819;28;20128;-55
2021/12/30 05:13:47;;;;;;;5.82;4.22;;;;;;;9.48;87.68;99778.06;5036330;28;20069;-55
2021/12/30 05:16:15;;;;;;;4.40;4.00;;;;;;;9.50;87.65;99778.06;5035906;28;20497;-56
2021/12/30 05:18:40;;;;;;;5.65;4.30;;;;;;;9.50;87.70;99773.75;5036432;28;20037;-55
2021/12/30 05:21:06;;;;;;;4.07;3.67;;;;;;;9.52;87.47;99772.06;5036501;28;20034;-55
2021/12/30 05:23:32;;;;;;;3.88;3.47;;;;;;;9.53;87.69;99763.44;5036429;28;20025;-56
2021/12/30 05:26:00;;;;;;;3.95;3.40;;;;;;;9.55;87.88;99766.94;5035111;28;20038;-55
2021/12/30 05:28:26;;;;;;;4.35;3.95;;;;;;;9.55;87.95;99764.34;5035115;28;20079;-55
2021/12/30 05:30:51;;;;;;;4.30;3.35;;;;;;;9.58;87.69;99763.50;5035040;28;20065;-56
2021/12/30 05:33:17;;;;;;;3.65;3.17;;;;;;;9.58;87.94;99777.34;5036097;28;20074;-56
2021/12/30 05:35:43;;;;;;;3.30;3.00;;;;;;;9.59;87.91;99784.25;5034935;28;20049;-55
2021/12/30 05:38:09;;;;;;;4.10;2.80;;;;;;;9.59;87.61;99773.91;5035087;28;20033;-55
2021/12/30 05:40:35;;;;;;;3.97;3.38;;;;;;;9.60;87.67;99785.13;5036147;28;20044;-55
2021/12/30 05:43:02;;;;;;;3.88;3.50;;;;;;;9.59;87.94;99783.38;5018229;28;20026;-55
2021/12/30 05:45:30;;;;;;;3.17;2.70;;;;;;;9.60;87.66;99787.69;5035453;28;20041;-57
2021/12/30 05:48:01;;;;;;;4.50;3.10;;;;;;;9.62;87.52;99786.00;5018374;28;20127;-55
2021/12/30 05:50:33;;;;;;;3.58;2.53;;;;;;;9.64;87.77;99791.22;5017981;28;20056;-56
2021/12/30 05:52:59;;;;;;;3.75;2.90;;;;;;;9.63;87.76;99792.06;5018102;28;20038;-56
2021/12/30 05:55:28;;;;;;;3.85;3.55;;;;;;;9.64;87.55;99783.47;5035497;28;20436;-55
2021/12/30 05:57:54;;;;;;;3.90;2.53;;;;;;;9.64;87.85;99781.75;5035503;28;20117;-55
2021/12/30 06:00:22;;;;;;;3.10;2.85;;;;;;;9.65;88.13;99786.06;5035837;28;20044;-56
2021/12/30 06:02:48;;;;;;;3.38;3.08;;;;;;;9.66;87.73;99782.63;5035344;28;20048;-56
2021/12/30 06:05:14;;;;;;;3.60;3.22;;;;;;;9.69;87.88;99793.03;5035394;28;20175;-55
2021/12/30 06:07:41;;;;;;;4.30;2.80;;;;;;;9.69;87.45;99782.69;5017642;28;20084;-55
2021/12/30 06:10:07;;;;;;;3.58;2.80;;;;;;;9.70;87.68;99791.31;5035060;28;20065;-55
2021/12/30 06:12:36;;;;;;;4.63;2.78;;;;;;;9.70;87.77;99799.06;5017665;28;20029;-55
2021/12/30 06:15:01;;;;;;;5.57;2.83;;;;;;;9.69;87.68;99803.41;5033952;28;20118;-56
2021/12/30 06:17:27;;;;;;;2.90;2.40;;;;;;;9.69;87.72;99808.56;5034005;28;20492;-55
2021/12/30 06:19:53;;;;;;;4.55;2.90;;;;;;;9.69;87.59;99812.84;5035414;28;20045;-56
2021/12/30 06:22:23;;;;;;;4.88;3.65;;;;;;;9.71;87.88;99808.59;5035306;28;20036;-56
2021/12/30 06:24:49;;;;;;;3.22;2.92;;;;;;;9.71;87.62;99791.34;5017621;28;20033;-55
2021/12/30 06:27:17;;;;;;;3.28;2.97;;;;;;;9.73;87.71;99802.56;5035173;28;20037;-55
2021/12/30 06:29:43;;;;;;;5.25;3.67;;;;;;;9.76;88.04;99799.19;5034110;28;20041;-56
2021/12/30 06:32:08;;;;;;;4.20;3.30;;;;;;;9.78;87.60;99801.78;5033958;28;20030;-56
2021/12/30 06:34:34;;;;;;;3.88;3.58;;;;;;;9.80;87.54;99800.09;5034834;28;20473;-55
2021/12/30 06:37:02;;;;;;;4.00;3.60;;;;;;;9.80;87.83;99795.81;5033985;28;20037;-55
2021/12/30 06:39:28;;;;;;;5.32;4.00;;;;;;;9.83;87.88;99794.97;5034908;28;20144;-56
2021/12/30 06:41:55;;;;;;;6.35;3.85;;;;;;;9.84;87.65;99782.03;5034528;28;20040;-55
2021/12/30 06:44:21;;;;;;;4.15;3.75;;;;;;;9.86;87.76;99784.66;5034658;28;20041;-55
2021/12/30 06:46:56;;;;;;;4.18;3.78;;;;;;;9.85;87.80;99791.53;5034752;28;20052;-55
2021/12/30 06:49:24;;;;;;;4.82;4.32;;;;;;;9.85;87.54;99791.53;5033430;28;20038;-56
2021/12/30 06:51:51;;;;;;;4.63;3.85;;;;;;;9.88;88.07;99782.97;5033459;28;20033;-55
2021/12/30 06:54:24;;;;;;;5.00;4.15;;;;;;;9.88;87.92;99789.00;5017145;28;20051;-56
2021/12/30 06:56:55;;;;;;;4.07;3.60;;;;;;;9.89;87.70;99784.69;5034314;28;20503;-55
2021/12/30 06:59:21;;;;;;;3.92;3.55;;;;;;;9.90;87.84;99791.59;5034751;28;20025;-55
2021/12/30 07:01:47;;;;;;;3.95;3.30;;;;;;;9.92;88.15;99787.31;5016658;28;20053;-56
2021/12/30 07:04:13;;;;;;;4.20;3.80;;;;;;;9.92;87.65;99784.72;5034143;28;20052;-55
2021/12/30 07:06:41;;;;;;;4.28;3.88;;;;;;;9.93;87.94;99781.31;5034241;28;20037;-55
2021/12/30 07:09:13;;;;;;;3.80;3.35;;;;;;;9.92;87.88;99787.31;5034332;28;20034;-56
2021/12/30 07:11:48;;;;;;;5.15;3.47;;;;;;;9.95;87.90;99781.34;5034267;28;20037;-56
2021/12/30 07:14:17;;;;;;;3.75;3.10;;;;;;;9.93;87.97;99791.66;5016924;28;20041;-55
2021/12/30 07:16:43;;;;;;;3.72;3.30;;;;;;;9.94;87.91;99805.47;5016520;28;20037;-56
2021/12/30 07:19:11;;;;;;;4.80;3.40;;;;;;;9.93;87.66;99811.50;5034140;28;20623;-55
2021/12/30 07:21:39;;;;;;;4.15;3.75;;;;;;;9.93;87.79;99812.38;5016311;28;20052;-55
2021/12/30 07:24:06;;;;;;;3.38;3.08;;;;;;;9.96;87.82;99821.91;5016361;28;20037;-56
2021/12/30 07:26:35;;;;;;;5.25;3.50;;;;;;;9.95;87.81;99826.22;5016356;28;20033;-55
2021/12/30 07:29:01;;;;;;;3.40;3.10;;;;;;;9.97;87.67;99839.16;5016227;28;20400;-55
2021/12/30 07:31:28;;;;;;;3.55;3.25;;;;;;;9.99;87.72;99829.69;5032685;28;20112;-55
2021/12/30 07:33:53;;;;;;;3.50;3.20;;;;;;;9.99;87.90;99842.66;5016028;28;20120;-55
2021/12/30 07:36:21;;;;;;;3.60;3.30;;;;;;;9.99;87.71;99845.22;5032385;28;20116;-56
2021/12/30 07:38:49;;;;;;;4.00;3.60;;;;;;;9.99;87.74;99850.41;5016133;28;20037;-56
2021/12/30 07:41:15;;;;;;;3.80;3.42;;;;;;;9.97;87.95;99865.94;5016005;28;20038;-55
2021/12/30 07:43:41;;;;;;;4.35;4.05;;;;;;;9.98;87.68;99869.38;5016164;28;20029;-55
2021/12/30 07:46:09;;;;;;;3.53;3.22;;;;;;;10.00;87.72;99871.16;5032427;28;20554;-55
2021/12/30 07:48:35;;;;;;;4.22;3.70;;;;;;;10.01;87.57;99879.78;5032525;28;20485;-55
2021/12/30 07:51:01;;;;;;;3.67;3.38;;;;;;;10.01;87.80;99888.44;5015748;28;20072;-56
2021/12/30 07:53:26;;;;;;;5.10;3.88;;;;;;;10.01;87.95;99887.56;5033610;28;20559;-55
2021/12/30 07:55:51;;;;;;;3.33;3.03;;;;;;;10.02;87.73;99897.97;5033996;28;20073;-55
2021/12/30 07:58:17;;;;;;;3.70;3.40;;;;;;;10.03;87.73;99914.34;5032430;28;20033;-55
2021/12/30 08:00:42;;;;;;;3.58;3.13;;;;;;;10.02;87.60;99910.91;5032747;28;20400;-56
2021/12/30 08:03:08;;;;;;;3.53;3.13;;;;;;;9.99;87.81;99916.03;5033213;28;20045;-55
2021/12/30 08:05:33;;;;;;;3.38;3.08;;;;;;;9.98;87.94;99919.47;5033371;28;20037;-56
2021/12/30 08:08:01;;;;;;;4.05;3.55;;;;;;;9.98;87.76;99928.94;5033988;28;20037;-56
2021/12/30 08:10:29;;;;;;;4.10;3.70;;;;;;;9.98;87.83;99926.34;5033426;28;20044;-56
2021/12/30 08:13:02;;;;;;;2.97;2.67;;;;;;;9.98;88.11;99918.56;5032131;28;20476;-55
2021/12/30 08:15:30;;;;;;;4.88;3.05;;;;;;;9.99;87.97;99934.16;5016079;28;20037;-55
2021/12/30 08:17:56;;;;;;;4.70;2.65;;;;;;;10.02;87.88;99930.72;5015435;28;20566;-56
2021/12/30 08:20:22;;;;;;;3.45;2.50;;;;;;;10.02;87.94;99934.22;5032116;28;20045;-56
2021/12/30 08:22:48;;;;;;;5.70;3.35;;;;;;;10.02;87.87;99931.63;5033488;28;20477;-55
2021/12/30 08:25:14;;;;;;;4.65;2.92;;;;;;;10.04;87.75;99935.06;5015402;28;20037;-55
2021/12/30 08:27:44;;;;;;;3.90;2.50;;;;;;;10.05;88.03;99946.31;5015536;28;20125;-55
2021/12/30 08:30:17;;;;;;;2.97;2.67;;;;;;;10.05;88.08;99942.00;5015395;28;20045;-55
2021/12/30 08:32:43;;;;;;;5.05;2.60;;;;;;;10.05;87.94;99947.19;5031917;28;20116;-56
2021/12/30 08:35:21;;;;;;;2.92;2.60;;;;;;;10.08;88.03;99940.31;5033702;28;20072;-56
2021/12/30 08:37:47;;;;;;;3.08;2.63;;;;;;;10.06;88.04;99946.34;5033630;28;20029;-55
2021/12/30 08:40:17;;;;;;;2.40;2.20;;;;;;;10.06;88.15;99943.75;5015741;28;20409;-55
2021/12/30 08:42:45;;;;;;;3.55;2.13;;;;;;;10.07;87.85;99942.06;5031728;28;20029;-55
2021/12/30 08:45:14;;;;;;;3.60;2.40;;;;;;;10.09;87.69;99947.25;5015411;28;20036;-55
2021/12/30 08:47:41;;;;;;;3.17;2.90;;;;;;;10.10;87.76;99946.41;5032362;28;20029;-56
2021/12/30 08:50:13;;;;;;;4.00;2.38;;;;;;;10.11;87.75;99950.72;5032134;28;20527;-56
2021/12/30 08:52:40;;;;;;;5.75;2.80;;;;;;;10.12;88.15;99953.34;5032129;28;20072;-55
2021/12/30 08:55:09;;;;;;;3.13;2.90;;;;;;;10.14;87.93;99950.78;5015688;28;20038;-56
2021/12/30 08:57:41;;;;;;;5.60;2.80;;;;;;;10.13;87.99;99949.91;5015322;28;20025;-56
2021/12/30 09:00:12;;;;;;;3.63;2.60;;;;;;;10.13;88.03;99957.66;5031701;28;20473;-55
2021/12/30 09:02:37;;;;;;;2.42;2.17;;;;;;;10.14;88.02;99954.22;5015518;28;20041;-55
2021/12/30 09:05:03;;;;;;;2.15;1.95;;;;;;;10.14;87.74;99956.81;5032574;28;20060;-56
2021/12/30 09:07:29;;;;;;;7.68;2.97;;;;;;;10.13;87.86;99969.75;5032050;28;20056;-55
2021/12/30 09:09:54;;;;;;;4.30;2.40;;;;;;;10.13;87.97;99962.84;5032768;28;20397;-55
2021/12/30 09:12:24;;;;;;;2.50;2.30;;;;;;;10.13;87.81;99967.16;5034005;28;20033;-56
2021/12/30 09:14:53;;;;;;;7.03;2.40;;;;;;;10.14;87.85;99962.00;5036475;28;20037;-56
2021/12/30 09:17:21;;;;;;;2.45;2.25;;;;;;;10.14;88.17;99962.00;5018640;28;20041;-56
2021/12/30 09:19:52;;;;;;;3.20;2.60;;;;;;;10.16;88.12;99969.81;5036064;28;20041;-56
2021/12/30 09:22:18;;;;;;;2.90;2.60;;;;;;;10.15;87.94;99968.94;5018570;28;20040;-56
2021/12/30 09:24:48;;;;;;;2.80;2.50;;;;;;;10.16;87.63;99975.00;5036297;28;20037;-56
2021/12/30 09:27:16;;;;;;;3.97;2.50;;;;;;;10.16;88.21;99970.66;5035122;28;20033;-56
2021/12/30 09:29:42;;;;;;;3.40;3.10;;;;;;;10.17;87.93;99966.38;5036457;28;20033;-56
2021/12/30 09:32:08;;;;;;;3.35;2.92;;;;;;;10.18;87.73;99978.50;5036409;28;20443;-56
2021/12/30 09:34:40;;;;;;;3.90;3.33;;;;;;;10.18;88.22;99983.66;5035911;28;20041;-56
2021/12/30 09:37:11;;;;;;;6.00;3.08;;;;;;;10.19;87.91;99982.81;5018499;28;20095;-56
2021/12/30 09:39:37;;;;;;;4.18;3.65;;;;;;;10.18;87.75;99988.84;5018351;28;20485;-56
2021/12/30 09:42:03;;;;;;;7.18;3.72;;;;;;;10.17;87.70;99985.38;5035961;28;20048;-56
2021/12/30 09:44:32;;;;;;;5.18;3.55;;;;;;;10.16;87.93;99990.53;5019122;28;20033;-56
2021/12/30 09:47:00;;;;;;;5.80;3.63;;;;;;;10.15;87.95;99997.41;5018495;28;20033;-55
2021/12/30 09:49:27;;;;;;;4.00;3.45;;;;;;;10.15;87.98;99996.56;5035431;28;20520;-56
2021/12/30 09:51:56;;;;;;;7.25;3.70;;;;;;;10.14;87.61;100002.56;5034648;28;20041;-56
2021/12/30 09:54:29;;;;;;;5.90;3.75;;;;;;;10.14;87.78;99987.03;5035213;28;20041;-56
2021/12/30 09:57:01;;;;;;;4.65;3.85;;;;;;;10.15;87.90;99996.56;5017854;28;20131;-56
2021/12/30 09:59:26;;;;;;;8.30;4.25;;;;;;;10.15;87.99;99999.16;5034624;28;20045;-56
2021/12/30 10:01:55;;;;;;;7.97;4.43;;;;;;;10.17;87.75;99997.47;5035246;28;20045;-56
2021/12/30 10:04:34;;;;;;;7.38;4.88;;;;;;;10.16;87.79;99998.31;5034527;28;20038;-56
2021/12/30 10:07:16;;;;;;;8.63;4.43;;;;;;;10.16;88.12;100003.47;5034144;28;20029;-55
2021/12/30 10:09:52;;;;;;;6.80;4.57;;;;;;;10.15;87.84;100010.38;5017544;28;20029;-56
2021/12/30 10:12:36;;;;;;;7.30;5.53;;;;;;;10.17;87.81;100008.69;5033970;28;20095;-55
2021/12/30 10:15:06;;;;;;;5.53;4.50;;;;;;;10.17;88.17;100002.63;5034354;28;20064;-55
2021/12/30 10:17:35;;;;;;;6.40;4.20;;;;;;;10.19;88.23;100016.50;5035192;28;20039;-56
2021/12/30 10:20:25;;;;;;;8.05;5.43;;;;;;;10.19;88.35;99998.38;5035280;28;20033;-56
2021/12/30 10:22:52;;;;;;;7.00;4.85;;;;;;;10.19;88.12;100012.16;5017280;28;20040;-55
2021/12/30 10:25:52;;;;;;;13.35;6.18;;;;;;;10.23;88.09;100013.09;5016807;28;20465;-56
2021/12/30 10:28:24;;;;;;;8.13;4.72;;;;;;;10.23;88.24;100017.41;5007034;28;20041;-56
2021/12/30 10:30:55;;;;;;;7.80;5.03;;;;;;;10.25;88.06;100028.66;5034887;28;20037;-55
2021/12/30 10:33:23;;;;;;;7.43;4.53;;;;;;;10.25;87.96;100028.66;5033787;28;20048;-56
2021/12/30 10:35:52;;;;;;;7.07;5.13;;;;;;;10.23;88.07;100038.97;5017326;28;20048;-56
2021/12/30 10:38:20;;;;;;;6.88;4.43;;;;;;;10.26;87.81;100022.66;5034685;28;20503;-56
2021/12/30 10:40:55;;;;;;;7.35;4.95;;;;;;;10.26;87.87;100026.09;5017302;28;20120;-56
2021/12/30 10:43:37;;;;;;;7.80;4.75;;;;;;;10.27;88.04;100025.25;5033939;28;20144;-56
2021/12/30 10:46:21;;;;;;;16.48;6.00;;;;;;;10.29;88.06;100020.09;5033926;28;20112;-56
2021/12/30 10:48:55;;;;;;;8.60;4.65;;;;;;;10.30;88.26;100025.31;5017093;28;20041;-55
2021/12/30 10:51:28;;;;;;;9.25;4.78;;;;;;;10.32;88.24;100027.91;5017434;28;20033;-56
2021/12/30 10:54:02;;;;;;;8.73;5.30;;;;;;;10.32;88.29;100017.53;5017448;28;20041;-56
2021/12/30 10:56:34;;;;;;;11.10;5.30;;;;;;;10.33;88.25;100019.28;5035004;28;20041;-56
2021/12/30 10:59:29;;;;;;;12.43;4.75;;;;;;;10.34;87.97;100021.94;5034436;28;20042;-56
2021/12/30 11:02:18;;;;;;;8.38;5.07;;;;;;;10.35;88.08;100026.22;5016506;28;20052;-56
2021/12/30 11:04:48;;;;;;;5.85;4.60;;;;;;;10.35;88.32;100025.38;5032965;28;20447;-56
2021/12/30 11:07:16;;;;;;;7.65;5.20;;;;;;;10.36;87.97;100020.22;5016562;28;20060;-56
2021/12/30 11:09:53;;;;;;;6.20;5.10;;;;;;;10.35;88.03;100023.66;5034303;28;20491;-56
2021/12/30 11:12:25;;;;;;;6.32;4.30;;;;;;;10.36;88.13;100032.31;5033258;28;20053;-56
2021/12/30 11:14:50;;;;;;;9.57;5.43;;;;;;;10.36;87.95;100020.22;5016549;28;20509;-56
2021/12/30 11:17:21;;;;;;;6.90;4.35;;;;;;;10.36;88.08;100033.16;5034484;28;20076;-56
2021/12/30 11:19:56;;;;;;;6.05;4.05;;;;;;;10.36;88.10;100035.75;5032657;28;20098;-55
2021/12/30 11:22:24;;;;;;;6.05;4.40;;;;;;;10.38;87.75;100033.25;5032553;28;20037;-56
2021/12/30 11:24:52;;;;;;;7.88;4.53;;;;;;;10.39;88.08;100047.06;5016684;28;20046;-56
2021/12/30 11:27:22;;;;;;;5.43;4.07;;;;;;;10.39;88.15;100047.06;5032865;28;20118;-56
2021/12/30 11:29:56;;;;;;;5.28;3.72;;;;;;;10.38;88.33;100053.03;5032595;28;20029;-56
2021/12/30 11:32:25;;;;;;;6.22;3.88;;;;;;;10.38;88.29;100053.03;5034129;28;20044;-56
2021/12/30 11:34:52;;;;;;;10.55;5.20;;;;;;;10.35;87.90;100044.38;5015771;28;20493;-56
2021/12/30 11:37:21;;;;;;;7.32;3.97;;;;;;;10.34;87.90;100042.66;5015843;28;20036;-56
2021/12/30 11:39:54;;;;;;;10.68;4.30;;;;;;;10.36;87.82;100040.94;5032778;28;20424;-56
2021/12/30 11:42:25;;;;;;;11.20;4.30;;;;;;;10.35;88.29;100044.38;5016252;28;20396;-56
2021/12/30 11:44:53;;;;;;;9.02;4.50;;;;;;;10.35;88.27;100040.91;5032686;28;20033;-56
2021/12/30 11:47:34;;;;;;;7.72;3.63;;;;;;;10.34;87.95;100037.47;5033634;28;20037;-56